sensor_id;sensor_type;location;lat;lon;timestamp;temperature;humidity
16064;DHT22;8136;53.172;8.256;2023-07-30T00:00:30;17.50;99.90
16064;DHT22;8136;53.172;8.256;2023-07-30T00:02:57;17.50;99.90
16064;DHT22;8136;53.172;8.256;2023-07-30T00:07:53;17.40;99.90
16064;DHT22;8136;53.172;8.256;2023-07-30T00:10:20;17.30;99.90
16064;DHT22;8136;53.172;8.256;2023-07-30T00:12:47;17.30;99.90
16064;DHT22;8136;53.172;8.256;2023-07-30T00:15:14;17.30;99.90
16064;DHT22;8136;53.172;8.256;2023-07-30T00:17:41;17.30;99.90
16064;DHT22;8136;53.172;8.256;2023-07-30T00:20:08;17.30;99.90
16064;DHT22;8136;53.172;8.256;2023-07-30T00:22:35;17.30;99.90
16064;DHT22;8136;53.172;8.256;2023-07-30T00:25:03;17.30;99.90
16064;DHT22;8136;53.172;8.256;2023-07-30T00:27:30;17.20;99.90
16064;DHT22;8136;53.172;8.256;2023-07-30T00:29:57;17.20;99.90
16064;DHT22;8136;53.172;8.256;2023-07-30T00:32:24;17.20;99.90
16064;DHT22;8136;53.172;8.256;2023-07-30T00:34:51;17.20;99.90
16064;DHT22;8136;53.172;8.256;2023-07-30T00:37:17;17.20;99.90
16064;DHT22;8136;53.172;8.256;2023-07-30T00:39:44;17.10;99.90
16064;DHT22;8136;53.172;8.256;2023-07-30T00:42:12;17.10;99.90
16064;DHT22;8136;53.172;8.256;2023-07-30T00:44:39;17.10;99.90
16064;DHT22;8136;53.172;8.256;2023-07-30T00:47:06;17.00;99.90
16064;DHT22;8136;53.172;8.256;2023-07-30T00:49:33;17.00;99.90
16064;DHT22;8136;53.172;8.256;2023-07-30T00:52:00;16.90;99.90
16064;DHT22;8136;53.172;8.256;2023-07-30T00:54:27;17.00;99.90
16064;DHT22;8136;53.172;8.256;2023-07-30T00:56:54;17.00;99.90
16064;DHT22;8136;53.172;8.256;2023-07-30T00:59:22;17.00;99.90
16064;DHT22;8136;53.172;8.256;2023-07-30T01:01:51;17.00;99.90
16064;DHT22;8136;53.172;8.256;2023-07-30T01:04:18;17.00;99.90
16064;DHT22;8136;53.172;8.256;2023-07-30T01:06:45;17.00;99.90
16064;DHT22;8136;53.172;8.256;2023-07-30T01:09:12;16.90;99.90
16064;DHT22;8136;53.172;8.256;2023-07-30T01:11:39;16.80;99.90
16064;DHT22;8136;53.172;8.256;2023-07-30T01:14:08;16.90;99.90
16064;DHT22;8136;53.172;8.256;2023-07-30T01:16:37;16.80;99.90
16064;DHT22;8136;53.172;8.256;2023-07-30T01:19:04;16.90;99.90
16064;DHT22;8136;53.172;8.256;2023-07-30T01:21:33;16.80;99.90
16064;DHT22;8136;53.172;8.256;2023-07-30T01:24:00;16.80;99.90
16064;DHT22;8136;53.172;8.256;2023-07-30T01:26:32;16.80;99.90
16064;DHT22;8136;53.172;8.256;2023-07-30T01:29:01;16.80;99.90
16064;DHT22;8136;53.172;8.256;2023-07-30T01:31:31;16.70;99.90
16064;DHT22;8136;53.172;8.256;2023-07-30T01:34:01;16.60;99.90
16064;DHT22;8136;53.172;8.256;2023-07-30T01:36:29;16.60;99.90
16064;DHT22;8136;53.172;8.256;2023-07-30T01:38:58;16.60;99.90
16064;DHT22;8136;53.172;8.256;2023-07-30T01:41:25;16.60;99.90
16064;DHT22;8136;53.172;8.256;2023-07-30T01:43:52;16.70;99.90
16064;DHT22;8136;53.172;8.256;2023-07-30T01:46:19;16.60;99.90
16064;DHT22;8136;53.172;8.256;2023-07-30T01:48:46;16.50;99.90
16064;DHT22;8136;53.172;8.256;2023-07-30T01:51:12;16.50;99.90
16064;DHT22;8136;53.172;8.256;2023-07-30T01:53:39;16.50;99.90
16064;DHT22;8136;53.172;8.256;2023-07-30T01:56:07;16.40;99.90
16064;DHT22;8136;53.172;8.256;2023-07-30T01:58:34;16.30;99.90
16064;DHT22;8136;53.172;8.256;2023-07-30T02:01:01;16.30;99.90
16064;DHT22;8136;53.172;8.256;2023-07-30T02:03:27;16.20;99.90
16064;DHT22;8136;53.172;8.256;2023-07-30T02:05:54;16.30;99.90
16064;DHT22;8136;53.172;8.256;2023-07-30T02:08:21;16.30;99.90
16064;DHT22;8136;53.172;8.256;2023-07-30T02:10:55;16.30;99.90
16064;DHT22;8136;53.172;8.256;2023-07-30T02:13:23;16.20;99.90
16064;DHT22;8136;53.172;8.256;2023-07-30T02:15:50;16.20;99.90
16064;DHT22;8136;53.172;8.256;2023-07-30T02:18:17;16.20;99.90
16064;DHT22;8136;53.172;8.256;2023-07-30T02:20:43;16.20;99.90
16064;DHT22;8136;53.172;8.256;2023-07-30T02:23:10;16.20;99.90
16064;DHT22;8136;53.172;8.256;2023-07-30T02:25:37;16.20;99.90
16064;DHT22;8136;53.172;8.256;2023-07-30T02:28:04;16.20;99.90
16064;DHT22;8136;53.172;8.256;2023-07-30T02:30:32;16.20;99.90
16064;DHT22;8136;53.172;8.256;2023-07-30T02:32:59;16.20;99.90
16064;DHT22;8136;53.172;8.256;2023-07-30T02:35:26;16.20;99.90
16064;DHT22;8136;53.172;8.256;2023-07-30T02:37:53;16.20;99.90
16064;DHT22;8136;53.172;8.256;2023-07-30T02:40:20;16.20;99.90
16064;DHT22;8136;53.172;8.256;2023-07-30T02:42:46;16.20;99.90
16064;DHT22;8136;53.172;8.256;2023-07-30T02:45:13;16.10;99.90
16064;DHT22;8136;53.172;8.256;2023-07-30T02:47:41;16.10;99.90
16064;DHT22;8136;53.172;8.256;2023-07-30T02:50:08;16.10;99.90
16064;DHT22;8136;53.172;8.256;2023-07-30T02:52:35;16.10;99.90
16064;DHT22;8136;53.172;8.256;2023-07-30T02:55:02;16.10;99.90
16064;DHT22;8136;53.172;8.256;2023-07-30T02:57:29;16.10;99.90
16064;DHT22;8136;53.172;8.256;2023-07-30T02:59:56;16.10;99.90
16064;DHT22;8136;53.172;8.256;2023-07-30T03:02:22;16.00;99.90
16064;DHT22;8136;53.172;8.256;2023-07-30T03:04:51;16.00;99.90
16064;DHT22;8136;53.172;8.256;2023-07-30T03:07:17;16.00;99.90
16064;DHT22;8136;53.172;8.256;2023-07-30T03:09:45;16.00;99.90
16064;DHT22;8136;53.172;8.256;2023-07-30T03:12:13;16.00;99.90
16064;DHT22;8136;53.172;8.256;2023-07-30T03:14:39;16.00;99.90
16064;DHT22;8136;53.172;8.256;2023-07-30T03:17:06;15.90;99.90
16064;DHT22;8136;53.172;8.256;2023-07-30T03:19:33;15.90;99.90
16064;DHT22;8136;53.172;8.256;2023-07-30T03:22:01;15.90;99.90
16064;DHT22;8136;53.172;8.256;2023-07-30T03:24:28;15.90;99.90
16064;DHT22;8136;53.172;8.256;2023-07-30T03:26:55;15.80;99.90
16064;DHT22;8136;53.172;8.256;2023-07-30T03:29:22;15.80;99.90
16064;DHT22;8136;53.172;8.256;2023-07-30T03:31:48;15.80;99.90
16064;DHT22;8136;53.172;8.256;2023-07-30T03:34:15;15.80;99.90
16064;DHT22;8136;53.172;8.256;2023-07-30T03:36:42;15.80;99.90
16064;DHT22;8136;53.172;8.256;2023-07-30T03:39:10;15.80;99.90
16064;DHT22;8136;53.172;8.256;2023-07-30T03:41:37;15.80;99.90
16064;DHT22;8136;53.172;8.256;2023-07-30T03:44:04;15.80;99.90
16064;DHT22;8136;53.172;8.256;2023-07-30T03:46:31;15.80;99.90
16064;DHT22;8136;53.172;8.256;2023-07-30T03:48:57;15.70;99.90
16064;DHT22;8136;53.172;8.256;2023-07-30T03:51:24;15.70;99.90
16064;DHT22;8136;53.172;8.256;2023-07-30T03:53:51;15.70;99.90
16064;DHT22;8136;53.172;8.256;2023-07-30T03:56:19;15.70;99.90
16064;DHT22;8136;53.172;8.256;2023-07-30T03:58:46;15.70;99.90
16064;DHT22;8136;53.172;8.256;2023-07-30T04:01:12;15.70;99.90
16064;DHT22;8136;53.172;8.256;2023-07-30T04:03:39;15.70;99.90
16064;DHT22;8136;53.172;8.256;2023-07-30T04:06:06;15.70;99.90
16064;DHT22;8136;53.172;8.256;2023-07-30T04:08:33;15.60;99.90
16064;DHT22;8136;53.172;8.256;2023-07-30T04:10:59;15.70;99.90
16064;DHT22;8136;53.172;8.256;2023-07-30T04:13:28;15.70;99.90
16064;DHT22;8136;53.172;8.256;2023-07-30T04:15:55;15.70;99.90
16064;DHT22;8136;53.172;8.256;2023-07-30T04:18:21;15.70;99.90
16064;DHT22;8136;53.172;8.256;2023-07-30T04:20:48;15.70;99.90
16064;DHT22;8136;53.172;8.256;2023-07-30T04:23:15;15.70;99.90
16064;DHT22;8136;53.172;8.256;2023-07-30T04:25:42;15.70;99.90
16064;DHT22;8136;53.172;8.256;2023-07-30T04:28:09;15.60;99.90
16064;DHT22;8136;53.172;8.256;2023-07-30T04:30:37;15.60;99.90
16064;DHT22;8136;53.172;8.256;2023-07-30T04:33:04;15.60;99.90
16064;DHT22;8136;53.172;8.256;2023-07-30T04:35:30;15.60;99.90
16064;DHT22;8136;53.172;8.256;2023-07-30T04:37:57;15.60;99.90
16064;DHT22;8136;53.172;8.256;2023-07-30T04:40:24;15.60;99.90
16064;DHT22;8136;53.172;8.256;2023-07-30T04:42:51;15.60;99.90
16064;DHT22;8136;53.172;8.256;2023-07-30T04:45:18;15.60;99.90
16064;DHT22;8136;53.172;8.256;2023-07-30T04:47:46;15.60;99.90
16064;DHT22;8136;53.172;8.256;2023-07-30T04:50:12;15.60;99.90
16064;DHT22;8136;53.172;8.256;2023-07-30T04:52:39;15.60;99.90
16064;DHT22;8136;53.172;8.256;2023-07-30T04:55:07;15.60;99.90
16064;DHT22;8136;53.172;8.256;2023-07-30T04:57:33;15.50;99.90
16064;DHT22;8136;53.172;8.256;2023-07-30T05:00:00;15.50;99.90
16064;DHT22;8136;53.172;8.256;2023-07-30T05:02:27;15.50;99.90
16064;DHT22;8136;53.172;8.256;2023-07-30T05:04:56;15.60;99.90
16064;DHT22;8136;53.172;8.256;2023-07-30T05:07:22;15.60;99.90
16064;DHT22;8136;53.172;8.256;2023-07-30T05:09:49;15.60;99.90
16064;DHT22;8136;53.172;8.256;2023-07-30T05:12:16;15.60;99.90
16064;DHT22;8136;53.172;8.256;2023-07-30T05:14:43;15.70;99.90
16064;DHT22;8136;53.172;8.256;2023-07-30T05:17:09;15.80;99.90
16064;DHT22;8136;53.172;8.256;2023-07-30T05:19:36;15.80;99.90
16064;DHT22;8136;53.172;8.256;2023-07-30T05:22:05;15.80;99.90
16064;DHT22;8136;53.172;8.256;2023-07-30T05:24:33;15.80;99.90
16064;DHT22;8136;53.172;8.256;2023-07-30T05:27:02;15.80;99.90
16064;DHT22;8136;53.172;8.256;2023-07-30T05:29:29;15.80;99.90
16064;DHT22;8136;53.172;8.256;2023-07-30T05:31:56;15.90;99.90
16064;DHT22;8136;53.172;8.256;2023-07-30T05:34:22;15.90;99.90
16064;DHT22;8136;53.172;8.256;2023-07-30T05:36:49;15.90;99.90
16064;DHT22;8136;53.172;8.256;2023-07-30T05:39:17;16.00;99.90
16064;DHT22;8136;53.172;8.256;2023-07-30T05:41:44;16.00;99.90
16064;DHT22;8136;53.172;8.256;2023-07-30T05:44:11;16.00;99.90
16064;DHT22;8136;53.172;8.256;2023-07-30T05:46:38;16.00;99.90
16064;DHT22;8136;53.172;8.256;2023-07-30T05:49:05;16.00;99.90
16064;DHT22;8136;53.172;8.256;2023-07-30T05:51:32;16.10;99.90
16064;DHT22;8136;53.172;8.256;2023-07-30T05:53:59;16.10;99.90
16064;DHT22;8136;53.172;8.256;2023-07-30T05:56:27;16.00;99.90
16064;DHT22;8136;53.172;8.256;2023-07-30T05:58:54;16.10;99.90
16064;DHT22;8136;53.172;8.256;2023-07-30T06:01:21;16.20;99.90
16064;DHT22;8136;53.172;8.256;2023-07-30T06:03:47;16.20;99.90
16064;DHT22;8136;53.172;8.256;2023-07-30T06:06:14;16.20;99.90
16064;DHT22;8136;53.172;8.256;2023-07-30T06:08:41;16.30;99.90
16064;DHT22;8136;53.172;8.256;2023-07-30T06:11:08;16.30;99.90
16064;DHT22;8136;53.172;8.256;2023-07-30T06:13:36;16.40;99.90
16064;DHT22;8136;53.172;8.256;2023-07-30T06:16:03;16.40;99.90
16064;DHT22;8136;53.172;8.256;2023-07-30T06:18:30;16.50;99.90
16064;DHT22;8136;53.172;8.256;2023-07-30T06:26:00;16.70;99.90
16064;DHT22;8136;53.172;8.256;2023-07-30T06:28:27;16.70;99.90
16064;DHT22;8136;53.172;8.256;2023-07-30T06:30:55;16.70;99.90
16064;DHT22;8136;53.172;8.256;2023-07-30T06:33:22;16.80;99.90
16064;DHT22;8136;53.172;8.256;2023-07-30T06:35:49;16.90;99.90
16064;DHT22;8136;53.172;8.256;2023-07-30T06:40:51;17.10;99.90
16064;DHT22;8136;53.172;8.256;2023-07-30T06:43:17;17.10;99.90
16064;DHT22;8136;53.172;8.256;2023-07-30T06:45:44;17.10;99.90
16064;DHT22;8136;53.172;8.256;2023-07-30T06:48:12;17.10;99.90
16064;DHT22;8136;53.172;8.256;2023-07-30T06:50:40;17.10;99.90
16064;DHT22;8136;53.172;8.256;2023-07-30T06:53:07;17.10;99.90
16064;DHT22;8136;53.172;8.256;2023-07-30T06:55:34;17.10;99.90
16064;DHT22;8136;53.172;8.256;2023-07-30T06:58:01;17.30;99.90
16064;DHT22;8136;53.172;8.256;2023-07-30T07:00:28;17.30;99.90
16064;DHT22;8136;53.172;8.256;2023-07-30T07:02:55;17.30;99.90
16064;DHT22;8136;53.172;8.256;2023-07-30T07:05:23;17.30;99.90
16064;DHT22;8136;53.172;8.256;2023-07-30T07:07:50;17.30;99.90
16064;DHT22;8136;53.172;8.256;2023-07-30T07:10:17;17.30;99.90
16064;DHT22;8136;53.172;8.256;2023-07-30T07:12:43;17.40;99.90
16064;DHT22;8136;53.172;8.256;2023-07-30T07:15:10;17.30;99.90
16064;DHT22;8136;53.172;8.256;2023-07-30T07:17:37;17.40;99.90
16064;DHT22;8136;53.172;8.256;2023-07-30T07:20:05;17.50;99.90
16064;DHT22;8136;53.172;8.256;2023-07-30T07:22:34;17.70;99.90
16064;DHT22;8136;53.172;8.256;2023-07-30T07:25:01;17.70;99.90
16064;DHT22;8136;53.172;8.256;2023-07-30T07:27:27;17.70;99.90
16064;DHT22;8136;53.172;8.256;2023-07-30T07:29:54;17.70;99.90
16064;DHT22;8136;53.172;8.256;2023-07-30T07:32:21;17.80;99.90
16064;DHT22;8136;53.172;8.256;2023-07-30T07:34:49;17.80;99.90
16064;DHT22;8136;53.172;8.256;2023-07-30T07:37:16;17.80;99.90
16064;DHT22;8136;53.172;8.256;2023-07-30T07:39:45;17.80;99.90
16064;DHT22;8136;53.172;8.256;2023-07-30T07:42:12;17.90;99.90
16064;DHT22;8136;53.172;8.256;2023-07-30T07:44:39;18.00;99.90
16064;DHT22;8136;53.172;8.256;2023-07-30T07:47:06;18.00;99.90
16064;DHT22;8136;53.172;8.256;2023-07-30T07:49:32;18.10;99.90
16064;DHT22;8136;53.172;8.256;2023-07-30T07:51:59;18.30;99.90
16064;DHT22;8136;53.172;8.256;2023-07-30T07:54:26;18.30;99.90
16064;DHT22;8136;53.172;8.256;2023-07-30T07:56:54;18.40;99.90
16064;DHT22;8136;53.172;8.256;2023-07-30T07:59:21;18.40;99.90
16064;DHT22;8136;53.172;8.256;2023-07-30T08:01:47;18.40;99.90
16064;DHT22;8136;53.172;8.256;2023-07-30T08:04:14;18.40;99.90
16064;DHT22;8136;53.172;8.256;2023-07-30T08:06:41;18.40;99.90
16064;DHT22;8136;53.172;8.256;2023-07-30T08:09:08;18.30;99.90
16064;DHT22;8136;53.172;8.256;2023-07-30T08:11:35;18.30;99.90
16064;DHT22;8136;53.172;8.256;2023-07-30T08:14:04;18.30;99.90
16064;DHT22;8136;53.172;8.256;2023-07-30T08:16:31;18.30;99.90
16064;DHT22;8136;53.172;8.256;2023-07-30T08:18:58;18.30;99.90
16064;DHT22;8136;53.172;8.256;2023-07-30T08:21:25;18.20;99.90
16064;DHT22;8136;53.172;8.256;2023-07-30T08:23:53;18.20;99.90
16064;DHT22;8136;53.172;8.256;2023-07-30T08:26:20;18.10;99.90
16064;DHT22;8136;53.172;8.256;2023-07-30T08:28:47;18.10;99.90
16064;DHT22;8136;53.172;8.256;2023-07-30T08:31:15;18.10;99.90
16064;DHT22;8136;53.172;8.256;2023-07-30T08:33:43;18.10;99.90
16064;DHT22;8136;53.172;8.256;2023-07-30T08:36:09;18.10;99.90
16064;DHT22;8136;53.172;8.256;2023-07-30T08:38:36;18.20;99.90
16064;DHT22;8136;53.172;8.256;2023-07-30T08:41:03;18.20;99.90
16064;DHT22;8136;53.172;8.256;2023-07-30T08:43:30;18.20;99.90
16064;DHT22;8136;53.172;8.256;2023-07-30T08:45:57;18.30;99.90
16064;DHT22;8136;53.172;8.256;2023-07-30T08:48:26;18.20;99.90
16064;DHT22;8136;53.172;8.256;2023-07-30T08:50:56;18.20;99.90
16064;DHT22;8136;53.172;8.256;2023-07-30T08:53:25;18.10;99.90
16064;DHT22;8136;53.172;8.256;2023-07-30T08:55:53;18.20;99.90
16064;DHT22;8136;53.172;8.256;2023-07-30T08:58:20;18.20;99.90
16064;DHT22;8136;53.172;8.256;2023-07-30T09:00:49;18.30;99.90
16064;DHT22;8136;53.172;8.256;2023-07-30T09:03:17;18.30;99.90
16064;DHT22;8136;53.172;8.256;2023-07-30T09:05:46;18.50;99.90
16064;DHT22;8136;53.172;8.256;2023-07-30T09:08:14;18.70;99.90
16064;DHT22;8136;53.172;8.256;2023-07-30T09:10:41;18.80;99.90
16064;DHT22;8136;53.172;8.256;2023-07-30T09:13:07;18.80;99.90
16064;DHT22;8136;53.172;8.256;2023-07-30T09:15:35;18.80;99.90
16064;DHT22;8136;53.172;8.256;2023-07-30T09:18:04;18.90;99.90
16064;DHT22;8136;53.172;8.256;2023-07-30T09:20:36;19.00;99.90
16064;DHT22;8136;53.172;8.256;2023-07-30T09:23:05;19.10;99.90
16064;DHT22;8136;53.172;8.256;2023-07-30T09:25:33;19.10;99.90
16064;DHT22;8136;53.172;8.256;2023-07-30T09:27:59;19.10;99.90
16064;DHT22;8136;53.172;8.256;2023-07-30T09:30:27;19.10;99.90
16064;DHT22;8136;53.172;8.256;2023-07-30T09:32:55;19.10;99.90
16064;DHT22;8136;53.172;8.256;2023-07-30T09:35:22;19.10;99.90
16064;DHT22;8136;53.172;8.256;2023-07-30T09:37:57;19.10;99.90
16064;DHT22;8136;53.172;8.256;2023-07-30T09:40:32;19.10;99.90
16064;DHT22;8136;53.172;8.256;2023-07-30T09:42:59;19.10;99.90
16064;DHT22;8136;53.172;8.256;2023-07-30T09:45:26;19.10;99.90
16064;DHT22;8136;53.172;8.256;2023-07-30T09:47:54;19.10;99.90
16064;DHT22;8136;53.172;8.256;2023-07-30T09:50:22;19.20;99.90
16064;DHT22;8136;53.172;8.256;2023-07-30T09:52:50;19.20;99.90
16064;DHT22;8136;53.172;8.256;2023-07-30T09:55:17;19.30;99.90
16064;DHT22;8136;53.172;8.256;2023-07-30T09:57:45;19.40;99.90
16064;DHT22;8136;53.172;8.256;2023-07-30T10:00:13;19.50;99.90
16064;DHT22;8136;53.172;8.256;2023-07-30T10:02:41;19.60;99.90
16064;DHT22;8136;53.172;8.256;2023-07-30T10:05:10;19.70;99.90
16064;DHT22;8136;53.172;8.256;2023-07-30T10:07:42;19.70;99.90
16064;DHT22;8136;53.172;8.256;2023-07-30T10:10:11;19.60;99.90
16064;DHT22;8136;53.172;8.256;2023-07-30T10:12:39;19.70;99.90
16064;DHT22;8136;53.172;8.256;2023-07-30T10:15:09;19.70;99.90
16064;DHT22;8136;53.172;8.256;2023-07-30T10:17:37;19.60;99.90
16064;DHT22;8136;53.172;8.256;2023-07-30T10:20:21;19.60;99.90
16064;DHT22;8136;53.172;8.256;2023-07-30T10:22:52;19.50;99.90
16064;DHT22;8136;53.172;8.256;2023-07-30T10:25:21;19.50;99.90
16064;DHT22;8136;53.172;8.256;2023-07-30T10:27:50;19.50;99.90
16064;DHT22;8136;53.172;8.256;2023-07-30T10:30:20;19.40;99.90
16064;DHT22;8136;53.172;8.256;2023-07-30T10:33:02;19.40;99.90
16064;DHT22;8136;53.172;8.256;2023-07-30T10:35:38;19.40;99.90
16064;DHT22;8136;53.172;8.256;2023-07-30T10:38:19;19.50;99.90
16064;DHT22;8136;53.172;8.256;2023-07-30T10:41:00;19.70;99.90
16064;DHT22;8136;53.172;8.256;2023-07-30T10:43:28;19.80;99.90
16064;DHT22;8136;53.172;8.256;2023-07-30T10:45:57;19.90;99.90
16064;DHT22;8136;53.172;8.256;2023-07-30T10:48:31;20.00;99.90
16064;DHT22;8136;53.172;8.256;2023-07-30T10:51:00;20.10;99.90
16064;DHT22;8136;53.172;8.256;2023-07-30T10:53:27;20.20;99.90
16064;DHT22;8136;53.172;8.256;2023-07-30T10:55:54;20.20;99.90
16064;DHT22;8136;53.172;8.256;2023-07-30T10:58:24;20.20;99.90
16064;DHT22;8136;53.172;8.256;2023-07-30T11:00:51;20.10;99.90
16064;DHT22;8136;53.172;8.256;2023-07-30T11:03:19;20.10;99.90
16064;DHT22;8136;53.172;8.256;2023-07-30T11:05:47;20.00;99.90
16064;DHT22;8136;53.172;8.256;2023-07-30T11:08:14;19.90;99.90
16064;DHT22;8136;53.172;8.256;2023-07-30T11:10:42;19.80;99.90
16064;DHT22;8136;53.172;8.256;2023-07-30T11:13:09;19.60;99.90
16064;DHT22;8136;53.172;8.256;2023-07-30T11:15:41;19.30;99.90
16064;DHT22;8136;53.172;8.256;2023-07-30T11:18:08;19.10;99.90
16064;DHT22;8136;53.172;8.256;2023-07-30T11:20:36;18.90;99.90
16064;DHT22;8136;53.172;8.256;2023-07-30T11:23:16;18.70;99.90
16064;DHT22;8136;53.172;8.256;2023-07-30T11:25:46;18.50;99.90
16064;DHT22;8136;53.172;8.256;2023-07-30T11:28:13;18.30;99.90
16064;DHT22;8136;53.172;8.256;2023-07-30T11:30:40;17.90;99.90
16064;DHT22;8136;53.172;8.256;2023-07-30T11:33:07;17.40;99.90
16064;DHT22;8136;53.172;8.256;2023-07-30T11:35:34;17.10;99.90
16064;DHT22;8136;53.172;8.256;2023-07-30T11:38:02;16.80;99.90
16064;DHT22;8136;53.172;8.256;2023-07-30T11:40:29;16.60;99.90
16064;DHT22;8136;53.172;8.256;2023-07-30T11:42:56;16.40;99.90
16064;DHT22;8136;53.172;8.256;2023-07-30T11:45:24;16.20;99.90
16064;DHT22;8136;53.172;8.256;2023-07-30T11:47:51;16.10;99.90
16064;DHT22;8136;53.172;8.256;2023-07-30T11:50:18;16.00;99.90
16064;DHT22;8136;53.172;8.256;2023-07-30T11:52:52;16.00;99.90
16064;DHT22;8136;53.172;8.256;2023-07-30T11:55:21;16.00;99.90
16064;DHT22;8136;53.172;8.256;2023-07-30T11:57:50;16.10;99.90
16064;DHT22;8136;53.172;8.256;2023-07-30T12:00:20;16.10;99.90
16064;DHT22;8136;53.172;8.256;2023-07-30T12:02:47;16.00;99.90
16064;DHT22;8136;53.172;8.256;2023-07-30T12:05:16;16.00;99.90
16064;DHT22;8136;53.172;8.256;2023-07-30T12:07:44;16.10;99.90
16064;DHT22;8136;53.172;8.256;2023-07-30T12:10:14;16.20;99.90
16064;DHT22;8136;53.172;8.256;2023-07-30T12:12:45;16.30;99.90
16064;DHT22;8136;53.172;8.256;2023-07-30T12:15:12;16.50;99.90
16064;DHT22;8136;53.172;8.256;2023-07-30T12:17:39;16.60;99.90
16064;DHT22;8136;53.172;8.256;2023-07-30T12:20:07;16.90;99.90
16064;DHT22;8136;53.172;8.256;2023-07-30T12:22:33;16.90;99.90
16064;DHT22;8136;53.172;8.256;2023-07-30T12:25:01;17.00;99.90
16064;DHT22;8136;53.172;8.256;2023-07-30T12:27:29;17.00;99.90
16064;DHT22;8136;53.172;8.256;2023-07-30T12:29:57;17.00;99.90
16064;DHT22;8136;53.172;8.256;2023-07-30T12:32:23;17.00;99.90
16064;DHT22;8136;53.172;8.256;2023-07-30T12:34:53;16.90;99.90
16064;DHT22;8136;53.172;8.256;2023-07-30T12:37:20;16.90;99.90
16064;DHT22;8136;53.172;8.256;2023-07-30T12:39:47;17.00;99.90
16064;DHT22;8136;53.172;8.256;2023-07-30T12:42:23;17.10;99.90
16064;DHT22;8136;53.172;8.256;2023-07-30T12:44:49;17.20;99.90
16064;DHT22;8136;53.172;8.256;2023-07-30T12:47:18;17.30;99.90
16064;DHT22;8136;53.172;8.256;2023-07-30T12:49:44;17.50;99.90
16064;DHT22;8136;53.172;8.256;2023-07-30T12:52:11;17.90;99.90
16064;DHT22;8136;53.172;8.256;2023-07-30T12:54:38;18.00;99.90
16064;DHT22;8136;53.172;8.256;2023-07-30T12:57:05;18.20;99.90
16064;DHT22;8136;53.172;8.256;2023-07-30T12:59:32;18.40;99.90
16064;DHT22;8136;53.172;8.256;2023-07-30T13:02:03;18.70;99.90
16064;DHT22;8136;53.172;8.256;2023-07-30T13:04:31;18.90;99.90
16064;DHT22;8136;53.172;8.256;2023-07-30T13:06:58;19.10;99.90
16064;DHT22;8136;53.172;8.256;2023-07-30T13:09:25;19.30;99.90
16064;DHT22;8136;53.172;8.256;2023-07-30T13:11:52;19.40;99.90
16064;DHT22;8136;53.172;8.256;2023-07-30T13:14:18;19.60;99.90
16064;DHT22;8136;53.172;8.256;2023-07-30T13:16:45;19.60;99.90
16064;DHT22;8136;53.172;8.256;2023-07-30T13:19:12;19.80;99.90
16064;DHT22;8136;53.172;8.256;2023-07-30T13:21:43;20.00;99.90
16064;DHT22;8136;53.172;8.256;2023-07-30T13:24:10;20.10;99.90
16064;DHT22;8136;53.172;8.256;2023-07-30T13:26:36;20.30;99.90
16064;DHT22;8136;53.172;8.256;2023-07-30T13:29:06;20.50;99.90
16064;DHT22;8136;53.172;8.256;2023-07-30T13:31:32;20.60;99.90
16064;DHT22;8136;53.172;8.256;2023-07-30T13:33:59;20.80;99.90
16064;DHT22;8136;53.172;8.256;2023-07-30T13:36:26;20.80;99.90
16064;DHT22;8136;53.172;8.256;2023-07-30T13:38:54;20.80;99.90
16064;DHT22;8136;53.172;8.256;2023-07-30T13:41:21;20.80;99.90
16064;DHT22;8136;53.172;8.256;2023-07-30T13:43:48;20.60;99.90
16064;DHT22;8136;53.172;8.256;2023-07-30T13:46:15;20.50;99.90
16064;DHT22;8136;53.172;8.256;2023-07-30T13:48:42;20.30;99.90
16064;DHT22;8136;53.172;8.256;2023-07-30T13:51:08;20.30;99.90
16064;DHT22;8136;53.172;8.256;2023-07-30T13:53:35;20.10;99.90
16064;DHT22;8136;53.172;8.256;2023-07-30T13:56:07;19.70;99.90
16064;DHT22;8136;53.172;8.256;2023-07-30T13:58:34;19.50;99.90
16064;DHT22;8136;53.172;8.256;2023-07-30T14:01:01;19.20;99.90
16064;DHT22;8136;53.172;8.256;2023-07-30T14:03:28;18.90;99.90
16064;DHT22;8136;53.172;8.256;2023-07-30T14:06:01;18.40;99.90
16064;DHT22;8136;53.172;8.256;2023-07-30T14:08:28;17.90;99.90
16064;DHT22;8136;53.172;8.256;2023-07-30T14:10:55;17.80;99.90
16064;DHT22;8136;53.172;8.256;2023-07-30T14:13:24;18.00;99.90
16064;DHT22;8136;53.172;8.256;2023-07-30T14:15:51;18.20;99.90
16064;DHT22;8136;53.172;8.256;2023-07-30T14:18:18;18.60;99.90
16064;DHT22;8136;53.172;8.256;2023-07-30T14:20:45;18.90;99.90
16064;DHT22;8136;53.172;8.256;2023-07-30T14:23:12;19.20;99.90
16064;DHT22;8136;53.172;8.256;2023-07-30T14:25:39;19.50;99.90
16064;DHT22;8136;53.172;8.256;2023-07-30T14:28:06;19.60;99.90
16064;DHT22;8136;53.172;8.256;2023-07-30T14:30:34;19.80;99.90
16064;DHT22;8136;53.172;8.256;2023-07-30T14:33:01;19.90;99.90
16064;DHT22;8136;53.172;8.256;2023-07-30T14:35:28;19.90;99.90
16064;DHT22;8136;53.172;8.256;2023-07-30T14:37:55;20.10;99.90
16064;DHT22;8136;53.172;8.256;2023-07-30T14:40:22;20.10;99.90
16064;DHT22;8136;53.172;8.256;2023-07-30T14:42:48;20.10;99.90
16064;DHT22;8136;53.172;8.256;2023-07-30T14:45:15;20.20;99.90
16064;DHT22;8136;53.172;8.256;2023-07-30T14:47:43;20.30;99.90
16064;DHT22;8136;53.172;8.256;2023-07-30T14:50:10;20.20;99.90
16064;DHT22;8136;53.172;8.256;2023-07-30T14:52:37;20.20;99.90
16064;DHT22;8136;53.172;8.256;2023-07-30T14:55:04;20.20;99.90
16064;DHT22;8136;53.172;8.256;2023-07-30T14:57:31;20.00;99.90
16064;DHT22;8136;53.172;8.256;2023-07-30T14:59:58;19.80;99.90
16064;DHT22;8136;53.172;8.256;2023-07-30T15:02:26;19.80;99.90
16064;DHT22;8136;53.172;8.256;2023-07-30T15:04:55;19.70;99.90
16064;DHT22;8136;53.172;8.256;2023-07-30T15:07:22;20.40;99.90
16064;DHT22;8136;53.172;8.256;2023-07-30T15:09:51;21.30;99.90
16064;DHT22;8136;53.172;8.256;2023-07-30T15:12:18;21.90;99.90
16064;DHT22;8136;53.172;8.256;2023-07-30T15:14:45;22.10;99.90
16064;DHT22;8136;53.172;8.256;2023-07-30T15:17:14;22.30;99.90
16064;DHT22;8136;53.172;8.256;2023-07-30T15:19:41;22.40;99.90
16064;DHT22;8136;53.172;8.256;2023-07-30T15:22:13;21.90;99.90
16064;DHT22;8136;53.172;8.256;2023-07-30T15:24:40;21.30;99.90
16064;DHT22;8136;53.172;8.256;2023-07-30T15:27:07;20.90;99.90
16064;DHT22;8136;53.172;8.256;2023-07-30T15:29:34;21.30;99.90
16064;DHT22;8136;53.172;8.256;2023-07-30T15:32:01;22.60;99.90
16064;DHT22;8136;53.172;8.256;2023-07-30T15:34:29;24.10;99.90
16064;DHT22;8136;53.172;8.256;2023-07-30T15:36:56;25.20;99.90
16064;DHT22;8136;53.172;8.256;2023-07-30T15:39:26;26.00;99.90
16064;DHT22;8136;53.172;8.256;2023-07-30T15:41:52;26.30;99.90
16064;DHT22;8136;53.172;8.256;2023-07-30T15:44:19;26.20;99.90
16064;DHT22;8136;53.172;8.256;2023-07-30T15:46:47;26.40;99.90
16064;DHT22;8136;53.172;8.256;2023-07-30T15:49:14;26.00;99.90
16064;DHT22;8136;53.172;8.256;2023-07-30T15:51:41;25.40;99.90
16064;DHT22;8136;53.172;8.256;2023-07-30T15:54:07;24.10;99.90
16064;DHT22;8136;53.172;8.256;2023-07-30T15:56:36;23.50;99.90